createdAt,value
2018-04-11T00:02:16.806Z,11.70
2018-04-11T00:04:44.312Z,11.60
2018-04-11T00:07:11.787Z,11.60
2018-04-11T00:09:39.286Z,11.50
2018-04-11T00:12:06.802Z,11.40
2018-04-11T00:14:34.269Z,11.40
2018-04-11T00:17:01.770Z,11.40
2018-04-11T00:19:30.030Z,11.50
2018-04-11T00:21:57.528Z,11.40
2018-04-11T00:24:25.001Z,11.40
2018-04-11T00:26:53.276Z,11.40
2018-04-11T00:29:20.740Z,11.40
2018-04-11T00:31:48.209Z,11.40
2018-04-11T00:34:15.713Z,11.40
2018-04-11T00:36:43.977Z,11.30
2018-04-11T00:39:11.450Z,11.30
2018-04-11T00:41:38.948Z,11.40
2018-04-11T00:44:06.427Z,11.40
2018-04-11T00:46:33.924Z,11.30
2018-04-11T00:49:01.398Z,11.30
2018-04-11T00:51:28.901Z,11.40
2018-04-11T00:53:56.377Z,11.30
2018-04-11T00:56:24.646Z,11.30
2018-04-11T00:58:52.152Z,11.30
2018-04-11T01:01:20.394Z,11.40
2018-04-11T01:03:47.889Z,11.30
2018-04-11T01:06:15.369Z,11.20
2018-04-11T01:08:43.624Z,11.00
2018-04-11T01:11:11.092Z,11.00
2018-04-11T01:13:38.589Z,10.90
2018-04-11T01:16:06.824Z,10.90
2018-04-11T01:18:34.352Z,10.90
2018-04-11T01:21:02.620Z,10.90
2018-04-11T01:23:30.116Z,10.90
2018-04-11T01:25:57.659Z,11.00
2018-04-11T01:28:25.173Z,11.10
2018-04-11T01:30:52.643Z,11.00
2018-04-11T01:33:20.149Z,10.80
2018-04-11T01:35:47.624Z,10.90
2018-04-11T01:38:15.100Z,10.70
2018-04-11T01:40:42.609Z,10.60
2018-04-11T01:43:10.852Z,10.60
2018-04-11T01:45:38.471Z,10.60
2018-04-11T01:48:05.992Z,10.60
2018-04-11T01:50:33.492Z,10.60
2018-04-11T01:53:00.997Z,10.60
2018-04-11T01:55:28.501Z,10.80
2018-04-11T01:57:55.978Z,10.80
2018-04-11T02:00:23.481Z,10.80
2018-04-11T02:02:50.979Z,10.80
2018-04-11T02:05:19.209Z,10.80
2018-04-11T02:07:46.709Z,10.80
2018-04-11T02:10:14.213Z,10.80
2018-04-11T02:12:41.695Z,10.80
2018-04-11T02:15:09.219Z,10.80
2018-04-11T02:17:36.687Z,10.80
2018-04-11T02:20:04.163Z,10.90
2018-04-11T02:22:31.665Z,10.90
2018-04-11T02:24:59.145Z,10.80
2018-04-11T02:27:26.654Z,10.80
2018-04-11T02:29:54.125Z,10.80
2018-04-11T02:32:21.629Z,10.70
2018-04-11T02:34:49.881Z,10.70
2018-04-11T02:37:18.122Z,10.70
2018-04-11T02:39:46.382Z,10.70
2018-04-11T02:42:13.888Z,10.70
2018-04-11T02:44:41.357Z,10.70
2018-04-11T02:47:08.871Z,10.80
2018-04-11T02:49:36.355Z,11.00
2018-04-11T02:52:03.828Z,11.00
2018-04-11T02:54:31.329Z,11.20
2018-04-11T02:56:59.599Z,11.20
2018-04-11T02:59:27.100Z,11.20
2018-04-11T03:01:54.569Z,11.10
2018-04-11T03:04:22.043Z,10.80
2018-04-11T03:06:49.553Z,10.70
2018-04-11T03:09:17.044Z,10.70
2018-04-11T03:11:44.508Z,10.70
2018-04-11T03:14:12.006Z,10.70
2018-04-11T03:16:40.249Z,10.60
2018-04-11T03:19:07.746Z,10.60
2018-04-11T03:21:35.224Z,10.60
2018-04-11T03:24:02.740Z,10.70
2018-04-11T03:26:30.210Z,10.60
2018-04-11T03:28:57.708Z,10.60
2018-04-11T03:31:25.190Z,10.60
2018-04-11T03:33:52.848Z,10.60
2018-04-11T03:36:20.349Z,10.60
2018-04-11T03:38:47.816Z,10.50
2018-04-11T03:41:15.324Z,10.50
2018-04-11T03:43:42.796Z,10.50
2018-04-11T03:46:10.293Z,10.50
2018-04-11T03:48:37.765Z,10.50
2018-04-11T03:51:05.256Z,10.50
2018-04-11T03:53:32.729Z,10.50
2018-04-11T03:56:00.332Z,10.50
2018-04-11T03:58:27.834Z,10.50
2018-04-11T04:00:55.311Z,10.50
2018-04-11T04:03:22.860Z,10.50
2018-04-11T04:05:50.341Z,10.60
2018-04-11T04:08:17.841Z,10.60
2018-04-11T04:10:45.324Z,10.50
2018-04-11T04:13:12.833Z,10.50
2018-04-11T04:15:51.988Z,10.40
2018-04-11T04:18:31.496Z,10.40
2018-04-11T04:20:58.969Z,10.40
2018-04-11T04:23:26.469Z,10.40
2018-04-11T04:25:54.785Z,10.40
2018-04-11T04:28:22.280Z,10.40
2018-04-11T04:30:49.768Z,10.40
2018-04-11T04:33:17.252Z,10.40
2018-04-11T04:35:44.747Z,10.40
2018-04-11T04:38:12.245Z,10.50
2018-04-11T04:40:39.717Z,10.50
2018-04-11T04:43:07.221Z,10.50
2018-04-11T04:45:34.708Z,10.50
2018-04-11T04:48:02.976Z,10.60
2018-04-11T04:50:30.494Z,10.60
2018-04-11T04:52:57.968Z,10.70
2018-04-11T04:55:25.481Z,10.60
2018-04-11T04:57:52.957Z,10.60
2018-04-11T05:00:20.457Z,10.60
2018-04-11T05:02:47.963Z,10.50
2018-04-11T05:05:15.481Z,10.50
2018-04-11T05:07:43.028Z,10.40
2018-04-11T05:10:10.516Z,10.50
2018-04-11T05:12:37.988Z,10.50
2018-04-11T05:15:05.504Z,10.50
2018-04-11T05:17:33.009Z,10.50
2018-04-11T05:20:00.480Z,10.60
2018-04-11T05:22:27.988Z,10.90
2018-04-11T05:24:56.224Z,10.70
2018-04-11T05:27:23.700Z,10.70
2018-04-11T05:29:51.202Z,10.60
2018-04-11T05:32:18.676Z,10.60
2018-04-11T05:34:46.177Z,10.60
2018-04-11T05:37:13.649Z,10.70
2018-04-11T05:39:41.149Z,10.60
2018-04-11T05:42:08.644Z,10.70
2018-04-11T05:44:36.177Z,10.70
2018-04-11T05:47:03.645Z,10.70
2018-04-11T05:49:31.133Z,10.70
2018-04-11T05:51:58.627Z,10.80
2018-04-11T05:54:26.113Z,11.00
2018-04-11T05:56:53.612Z,11.00
2018-04-11T05:59:21.077Z,10.90
2018-04-11T06:01:48.572Z,10.90
2018-04-11T06:04:16.081Z,10.80
2018-04-11T06:06:43.550Z,10.80
2018-04-11T06:09:11.057Z,10.70
2018-04-11T06:11:39.364Z,10.70
2018-04-11T06:14:07.563Z,10.70
2018-04-11T06:16:35.073Z,10.70
2018-04-11T06:19:02.539Z,10.70
2018-04-11T06:21:30.035Z,10.70
2018-04-11T06:23:58.292Z,10.80
2018-04-11T06:26:25.784Z,10.70
2018-04-11T06:28:54.046Z,10.90
2018-04-11T06:31:21.524Z,10.80
2018-04-11T06:33:49.147Z,11.00
2018-04-11T06:36:16.578Z,11.30
2018-04-11T06:38:44.057Z,11.40
2018-04-11T06:41:11.533Z,11.20
2018-04-11T06:43:39.792Z,11.10
2018-04-11T06:46:07.267Z,11.10
2018-04-11T06:48:34.800Z,11.10
2018-04-11T06:51:04.925Z,11.10
2018-04-11T06:53:32.404Z,11.10
2018-04-11T06:55:59.963Z,11.10
2018-04-11T06:58:31.353Z,11.10
2018-04-11T07:00:58.937Z,11.00
2018-04-11T07:03:26.569Z,11.00
2018-04-11T07:05:54.049Z,11.00
2018-04-11T07:08:22.473Z,11.00
2018-04-11T07:10:54.304Z,10.90
2018-04-11T07:13:21.784Z,10.80
2018-04-11T07:15:50.810Z,10.90
2018-04-11T07:18:18.286Z,10.90
2018-04-11T07:20:45.764Z,10.90
2018-04-11T07:23:16.957Z,10.90
2018-04-11T07:25:44.433Z,11.00
2018-04-11T07:28:12.704Z,11.00
2018-04-11T07:30:40.172Z,11.00
2018-04-11T07:33:07.672Z,11.00
2018-04-11T07:35:36.382Z,11.00
2018-04-11T07:38:03.879Z,11.10
2018-04-11T07:40:31.352Z,11.10
2018-04-11T07:43:00.444Z,11.20
2018-04-11T07:45:27.957Z,11.20
2018-04-11T07:47:55.476Z,11.20
2018-04-11T07:50:54.662Z,11.20
2018-04-11T07:53:22.163Z,11.40
2018-04-11T07:58:42.969Z,11.40
2018-04-11T08:01:10.704Z,11.20
2018-04-11T08:03:38.319Z,11.10
2018-04-11T08:06:05.889Z,11.20
2018-04-11T08:08:33.401Z,11.30
2018-04-11T08:11:02.164Z,11.20
2018-04-11T08:13:29.689Z,11.10
2018-04-11T08:15:57.209Z,11.10
2018-04-11T08:18:24.721Z,11.00
2018-04-11T08:20:54.875Z,10.80
2018-04-11T08:26:01.214Z,10.80
2018-04-11T08:28:28.725Z,10.70
2018-04-11T08:30:57.660Z,10.70
2018-04-11T08:33:25.174Z,10.80
2018-04-11T08:35:52.657Z,10.90
2018-04-11T08:38:20.156Z,10.80
2018-04-11T08:40:47.661Z,10.80
2018-04-11T08:43:15.162Z,10.70
2018-04-11T08:45:43.429Z,10.70
2018-04-11T08:48:11.926Z,10.70
2018-04-11T08:50:39.429Z,10.70
2018-04-11T08:53:10.178Z,10.80
2018-04-11T08:55:54.362Z,10.70
2018-04-11T08:58:21.945Z,10.80
2018-04-11T09:00:49.440Z,10.80
2018-04-11T09:03:16.915Z,10.70
2018-04-11T09:05:44.408Z,10.80
2018-04-11T09:08:12.648Z,10.80
2018-04-11T09:10:40.152Z,10.80
2018-04-11T09:13:07.640Z,10.80
2018-04-11T09:15:35.145Z,10.80
2018-04-11T09:18:02.626Z,10.70
2018-04-11T09:20:30.137Z,10.60
2018-04-11T09:22:57.621Z,10.60
2018-04-11T09:25:25.863Z,10.70
2018-04-11T09:27:53.374Z,10.70
2018-04-11T09:30:20.880Z,10.80
2018-04-11T09:32:48.402Z,10.80
2018-04-11T09:35:16.941Z,10.80
2018-04-11T09:37:44.413Z,10.80
2018-04-11T09:40:11.916Z,10.50
2018-04-11T09:42:39.408Z,10.30
2018-04-11T09:45:08.980Z,10.30
2018-04-11T09:47:55.369Z,10.20
2018-04-11T09:50:41.822Z,10.30
2018-04-11T09:53:09.292Z,10.40
2018-04-11T09:55:36.805Z,10.40
2018-04-11T09:58:04.317Z,10.30
2018-04-11T10:00:31.861Z,10.30
2018-04-11T10:03:06.065Z,10.20
2018-04-11T10:05:33.550Z,10.30
2018-04-11T10:08:01.873Z,10.50
2018-04-11T10:10:29.366Z,10.50
2018-04-11T10:12:56.875Z,10.50
2018-04-11T10:15:24.400Z,10.50
2018-04-11T10:17:51.896Z,10.60
2018-04-11T10:20:19.476Z,10.70
2018-04-11T10:22:46.978Z,10.60
2018-04-11T10:25:14.485Z,10.60
2018-04-11T10:27:41.974Z,10.50
2018-04-11T10:30:09.979Z,10.50
2018-04-11T10:32:37.519Z,10.60
2018-04-11T10:35:05.050Z,10.50
2018-04-11T10:37:33.993Z,10.50
2018-04-11T10:40:01.659Z,10.50
2018-04-11T10:42:29.173Z,10.60
2018-04-11T10:44:56.694Z,10.90
2018-04-11T10:47:24.185Z,11.10
2018-04-11T10:49:51.692Z,11.10
2018-04-11T10:52:19.194Z,11.20
2018-04-11T10:54:48.330Z,11.30
2018-04-11T10:57:15.847Z,11.30
2018-04-11T10:59:43.339Z,11.50
2018-04-11T11:02:11.648Z,11.70
2018-04-11T11:04:41.054Z,11.70
2018-04-11T11:07:26.716Z,11.80
2018-04-11T11:09:54.235Z,11.80
2018-04-11T11:12:21.749Z,11.90
2018-04-11T11:14:49.276Z,11.90
2018-04-11T11:17:16.793Z,12.00
2018-04-11T11:19:56.201Z,12.00
2018-04-11T11:22:23.697Z,12.00
2018-04-11T11:24:51.184Z,12.10
2018-04-11T11:27:18.766Z,12.30
2018-04-11T11:29:46.264Z,12.40
2018-04-11T11:32:13.796Z,12.50
2018-04-11T11:34:41.296Z,12.50
2018-04-11T11:37:08.826Z,12.50
2018-04-11T11:39:36.297Z,12.70
2018-04-11T11:42:03.840Z,12.60
2018-04-11T11:44:31.364Z,12.60
2018-04-11T11:46:59.630Z,12.50
2018-04-11T11:49:27.126Z,12.40
2018-04-11T11:51:55.378Z,12.30
2018-04-11T11:54:22.888Z,12.30
2018-04-11T11:56:51.125Z,12.50
2018-04-11T11:59:18.717Z,12.50
2018-04-11T12:01:47.007Z,12.70
2018-04-11T12:04:14.495Z,12.60
2018-04-11T12:06:42.771Z,12.50
2018-04-11T12:09:10.244Z,12.50
2018-04-11T12:11:37.737Z,12.60
2018-04-11T12:14:05.212Z,12.90
2018-04-11T12:16:32.716Z,12.80
2018-04-11T12:19:00.966Z,12.80
2018-04-11T12:21:28.468Z,12.70
2018-04-11T12:23:55.937Z,12.70
2018-04-11T12:26:23.444Z,12.80
2018-04-11T12:28:50.937Z,13.00
2018-04-11T12:31:18.453Z,13.00
2018-04-11T12:33:45.938Z,13.00
2018-04-11T12:36:13.421Z,13.00
2018-04-11T12:38:41.702Z,12.80
2018-04-11T12:41:09.250Z,12.70
2018-04-11T12:43:36.724Z,12.90
2018-04-11T12:46:04.284Z,12.90
2018-04-11T12:48:31.791Z,12.90
2018-04-11T12:50:59.340Z,12.90
2018-04-11T12:53:26.903Z,12.80
2018-04-11T12:55:55.168Z,12.80
2018-04-11T12:58:22.668Z,12.80
2018-04-11T13:00:50.187Z,12.80
2018-04-11T13:03:17.665Z,12.80
2018-04-11T13:05:45.172Z,12.80
2018-04-11T13:08:12.689Z,12.90
2018-04-11T13:10:40.956Z,13.20
2018-04-11T13:13:08.434Z,13.20
2018-04-11T13:15:35.941Z,13.40
2018-04-11T13:18:04.199Z,13.30
2018-04-11T13:20:31.692Z,13.30
2018-04-11T13:22:59.165Z,13.40
2018-04-11T13:25:26.729Z,13.40
2018-04-11T13:27:54.220Z,13.40
2018-04-11T13:30:22.488Z,13.60
2018-04-11T13:32:49.964Z,13.70
2018-04-11T13:35:17.464Z,14.00
2018-04-11T13:37:45.017Z,13.70
2018-04-11T13:40:13.257Z,14.00
2018-04-11T13:42:40.765Z,14.00
2018-04-11T13:45:08.237Z,13.90
2018-04-11T13:47:35.735Z,14.00
2018-04-11T13:50:03.220Z,14.10
2018-04-11T13:52:30.717Z,14.00
2018-04-11T13:54:58.968Z,14.10
2018-04-11T13:57:26.473Z,14.10
2018-04-11T13:59:54.708Z,14.30
2018-04-11T14:02:22.207Z,14.30
2018-04-11T14:04:49.684Z,14.00
2018-04-11T14:07:17.180Z,13.60
2018-04-11T14:09:45.452Z,13.80
2018-04-11T14:12:12.937Z,13.80
2018-04-11T14:14:41.184Z,14.30
2018-04-11T14:17:08.677Z,14.30
2018-04-11T14:19:36.149Z,14.40
2018-04-11T14:22:03.650Z,14.50
2018-04-11T14:24:31.901Z,15.10
2018-04-11T14:26:59.404Z,15.10
2018-04-11T14:29:27.649Z,15.00
2018-04-11T14:31:55.146Z,15.00
2018-04-11T14:34:22.621Z,14.80
2018-04-11T14:36:50.897Z,14.40
2018-04-11T14:39:18.384Z,14.40
2018-04-11T14:41:46.649Z,13.80
2018-04-11T14:44:14.159Z,13.80
2018-04-11T14:46:41.643Z,13.90
2018-04-11T14:49:09.151Z,14.10
2018-04-11T14:51:36.636Z,14.30
2018-04-11T14:54:04.140Z,14.30
2018-04-11T14:56:31.624Z,14.10
2018-04-11T14:58:59.139Z,14.20
2018-04-11T15:01:26.637Z,14.30
2018-04-11T15:03:54.875Z,14.30
2018-04-11T15:06:22.447Z,14.30
2018-04-11T15:08:49.937Z,14.10
2018-04-11T15:11:17.490Z,14.30
2018-04-11T15:13:44.980Z,14.10
2018-04-11T15:16:12.479Z,13.90
2018-04-11T15:18:40.740Z,13.80
2018-04-11T15:21:08.245Z,13.80
2018-04-11T15:23:36.493Z,14.10
2018-04-11T15:26:04.000Z,14.10
2018-04-11T15:28:32.264Z,14.20
2018-04-11T15:30:59.787Z,14.10
2018-04-11T15:33:27.269Z,14.30
2018-04-11T15:35:54.752Z,14.20
2018-04-11T15:38:22.260Z,14.30
2018-04-11T15:40:49.740Z,14.00
2018-04-11T15:43:18.024Z,13.80
2018-04-11T15:45:45.516Z,13.80
2018-04-11T15:48:13.020Z,14.10
2018-04-11T15:50:41.296Z,14.00
2018-04-11T15:53:08.796Z,14.00
2018-04-11T15:55:36.292Z,13.90
2018-04-11T15:58:03.771Z,14.00
2018-04-11T16:00:31.262Z,13.80
2018-04-11T16:02:58.799Z,13.80
2018-04-11T16:05:26.329Z,13.90
2018-04-11T16:07:53.820Z,13.80
2018-04-11T16:10:21.306Z,13.60
2018-04-11T16:12:50.618Z,13.50
2018-04-11T16:15:40.948Z,13.60
2018-04-11T16:18:08.442Z,13.60
2018-04-11T16:20:35.909Z,13.60
2018-04-11T16:23:03.401Z,13.50
2018-04-11T16:25:30.891Z,13.60
2018-04-11T16:27:58.401Z,13.50
2018-04-11T16:30:26.644Z,13.20
2018-04-11T16:32:54.151Z,13.20
2018-04-11T16:35:21.646Z,13.10
2018-04-11T16:37:49.117Z,13.10
2018-04-11T16:40:16.635Z,13.20
2018-04-11T16:42:44.105Z,13.20
2018-04-11T16:45:11.537Z,13.20
2018-04-11T16:47:39.082Z,13.20
2018-04-11T16:50:07.356Z,12.90
2018-04-11T16:52:35.615Z,13.10
2018-04-11T16:55:03.093Z,13.10
2018-04-11T16:57:31.356Z,12.90
2018-04-11T16:59:58.830Z,12.90
2018-04-11T17:02:27.095Z,13.00
2018-04-11T17:04:55.769Z,13.00
2018-04-11T17:07:23.245Z,13.00
2018-04-11T17:09:51.516Z,13.10
2018-04-11T17:12:19.786Z,12.90
2018-04-11T17:14:47.261Z,12.90
2018-04-11T17:17:15.527Z,12.60
2018-04-11T17:19:42.999Z,12.60
2018-04-11T17:25:53.857Z,12.50
2018-04-11T17:28:33.216Z,12.50
2018-04-11T17:31:16.352Z,12.40
2018-04-11T17:33:43.969Z,12.40
2018-04-11T17:36:11.479Z,12.40
2018-04-11T17:38:39.774Z,12.20
2018-04-11T17:41:08.917Z,12.20
2018-04-11T17:43:38.255Z,12.20
2018-04-11T17:46:06.783Z,12.10
2018-04-11T17:48:34.378Z,12.10
2018-04-11T17:51:02.362Z,12.00
2018-04-11T17:53:30.787Z,12.00
2018-04-11T17:56:06.105Z,11.90
2018-04-11T17:58:33.758Z,11.90
2018-04-11T18:01:01.358Z,11.80
2018-04-11T18:03:28.951Z,11.90
2018-04-11T18:05:57.986Z,11.90
2018-04-11T18:08:25.813Z,11.80
2018-04-11T18:10:54.168Z,11.80
2018-04-11T18:13:22.507Z,11.70
2018-04-11T18:15:50.048Z,11.70
2018-04-11T18:18:18.303Z,11.70
2018-04-11T18:20:46.591Z,11.50
2018-04-11T18:23:14.107Z,11.50
2018-04-11T18:25:41.718Z,11.40
2018-04-11T18:28:09.887Z,11.40
2018-04-11T18:30:37.701Z,11.30
2018-04-11T18:33:05.269Z,11.30
2018-04-11T18:35:32.911Z,11.30
2018-04-11T18:38:00.488Z,11.20
2018-04-11T18:40:28.033Z,11.30
2018-04-11T18:42:55.626Z,11.30
2018-04-11T18:45:23.182Z,11.20
2018-04-11T18:47:51.443Z,11.30
2018-04-11T18:50:18.998Z,11.30
2018-04-11T18:52:46.581Z,11.30
2018-04-11T18:55:14.151Z,11.30
2018-04-11T18:57:41.697Z,11.30
2018-04-11T19:00:09.989Z,11.20
2018-04-11T19:02:38.168Z,11.20
2018-04-11T19:05:05.750Z,11.10
2018-04-11T19:07:34.199Z,11.00
2018-04-11T19:10:01.765Z,11.00
2018-04-11T19:12:30.152Z,11.10
2018-04-11T19:14:58.435Z,11.10
2018-04-11T19:17:26.021Z,11.00
2018-04-11T19:19:53.607Z,11.00
2018-04-11T19:22:22.312Z,11.00
2018-04-11T19:24:51.247Z,10.90
2018-04-11T19:27:18.757Z,11.00
2018-04-11T19:29:46.505Z,10.90
2018-04-11T19:32:14.068Z,10.80
2018-04-11T19:34:41.894Z,10.80
2018-04-11T19:37:09.477Z,10.70
2018-04-11T19:39:37.835Z,10.40
2018-04-11T19:42:06.875Z,10.30
2018-04-11T19:44:34.439Z,10.30
2018-04-11T19:47:02.778Z,10.20
2018-04-11T19:49:31.108Z,10.10
2018-04-11T19:51:59.594Z,10.10
2018-04-11T19:54:29.996Z,10.20
2018-04-11T19:56:57.618Z,10.20
2018-04-11T19:59:26.547Z,10.10
2018-04-11T20:01:54.103Z,10.10
2018-04-11T20:04:21.698Z,10.10
2018-04-11T20:06:49.343Z,10.00
2018-04-11T20:09:16.897Z,9.90
2018-04-11T20:11:44.446Z,9.80
2018-04-11T20:14:11.986Z,9.80
2018-04-11T20:16:40.344Z,9.80
2018-04-11T20:19:07.924Z,9.90
2018-04-11T20:21:35.482Z,10.00
2018-04-11T20:24:03.154Z,9.90
2018-04-11T20:26:30.822Z,10.00
2018-04-11T20:28:58.410Z,10.00
2018-04-11T20:31:26.518Z,10.00
2018-04-11T20:33:54.081Z,9.80
2018-04-11T20:36:21.866Z,9.70
2018-04-11T20:38:49.430Z,9.70
2018-04-11T20:41:16.991Z,9.70
2018-04-11T20:43:45.364Z,9.70
2018-04-11T20:46:13.006Z,9.60
2018-04-11T20:48:40.550Z,9.60
2018-04-11T20:51:14.422Z,9.60
2018-04-11T20:53:41.983Z,9.50
2018-04-11T20:56:09.529Z,9.60
2018-04-11T20:58:37.053Z,9.80
2018-04-11T21:01:06.027Z,10.00
2018-04-11T21:03:34.667Z,9.90
2018-04-11T21:06:03.065Z,9.80
2018-04-11T21:08:30.609Z,9.60
2018-04-11T21:10:58.134Z,9.50
2018-04-11T21:13:26.833Z,9.50
2018-04-11T21:15:54.326Z,9.40
2018-04-11T21:18:21.862Z,9.40
2018-04-11T21:20:49.499Z,9.40
2018-04-11T21:23:17.036Z,9.20
2018-04-11T21:25:44.605Z,9.10
2018-04-11T21:30:46.704Z,9.00
2018-04-11T21:33:14.211Z,9.00
2018-04-11T21:35:42.345Z,9.10
2018-04-11T21:38:10.635Z,9.70
2018-04-11T21:40:38.968Z,9.50
2018-04-11T21:43:07.411Z,9.50
2018-04-11T21:45:35.012Z,9.50
2018-04-11T21:48:02.535Z,9.50
2018-04-11T21:50:30.108Z,9.40
2018-04-11T21:52:57.673Z,9.30
2018-04-11T21:55:25.409Z,9.30
2018-04-11T21:57:52.960Z,9.30
2018-04-11T22:00:22.645Z,9.20
2018-04-11T22:02:50.213Z,9.20
2018-04-11T22:05:18.493Z,9.20
2018-04-11T22:07:46.055Z,9.10
2018-04-11T22:10:13.573Z,9.10
2018-04-11T22:12:41.116Z,9.00
2018-04-11T22:15:08.662Z,9.00
2018-04-11T22:17:36.158Z,9.30
2018-04-11T22:20:04.121Z,9.40
2018-04-11T22:22:31.650Z,9.40
2018-04-11T22:24:59.177Z,9.30
2018-04-11T22:27:26.714Z,9.30
2018-04-11T22:29:55.016Z,9.20
2018-04-11T22:32:22.577Z,9.20
2018-04-11T22:34:50.101Z,9.10
2018-04-11T22:37:18.659Z,8.90
2018-04-11T22:39:47.033Z,8.90
2018-04-11T22:42:14.600Z,8.80
2018-04-11T22:44:42.133Z,8.70
2018-04-11T22:47:09.731Z,9.00
2018-04-11T22:49:37.263Z,8.90
2018-04-11T22:52:04.773Z,8.90
2018-04-11T22:54:33.108Z,8.70
2018-04-11T22:57:00.587Z,8.60
2018-04-11T22:59:29.094Z,8.60
2018-04-11T23:01:56.612Z,8.60
2018-04-11T23:04:24.157Z,8.60
2018-04-11T23:06:51.678Z,8.70
2018-04-11T23:09:19.406Z,8.60
2018-04-11T23:11:46.932Z,8.40
2018-04-11T23:14:15.077Z,8.40
2018-04-11T23:16:42.950Z,8.40
2018-04-11T23:19:10.485Z,8.30
2018-04-11T23:21:38.021Z,8.40
2018-04-11T23:24:05.574Z,8.40
2018-04-11T23:26:33.899Z,8.10
2018-04-11T23:29:01.421Z,8.10
2018-04-11T23:31:28.961Z,8.00
2018-04-11T23:33:57.260Z,8.00
2018-04-11T23:36:24.896Z,8.00
2018-04-11T23:38:52.366Z,8.00
2018-04-11T23:41:19.974Z,8.00
2018-04-11T23:43:49.753Z,8.00
2018-04-11T23:46:17.954Z,8.00
2018-04-11T23:48:45.440Z,8.00
2018-04-11T23:51:13.036Z,8.00
2018-04-11T23:53:40.614Z,8.10
2018-04-11T23:56:08.783Z,8.10
2018-04-11T23:58:36.323Z,8.20
